Nearby METAR Reports

 

KHAO - Hamilton, Ohio, USA
Distance from station: NW 8mi, 14km
Updated: 02/15/2019 1:53pm
Clear
Clear
 Wind from WNW
Wind: WNW 14 mph , 22 km/h
Temperature: 36°F , 2°C
Wind Chill: 27°F , -3°C
Dew Point: 21°F , -6°C
Humidity: 56%
Barometer: 29.90 inHg , 1012.5 hPa
Clouds: Clear
Visibility: 10 miles , 16 km
2019/02/15 18:53 KHAO 151853Z AUTO 29012KT 10SM CLR 02/M06 A2990 RMK AO2 SLP130 T00221061
KMWO - Middletown/Hook, Ohio, USA
Distance from station: N 17mi, 27km
Updated: 02/15/2019 1:55pm
Clear
Clear
 Wind from WNW
Wind: WNW 13 mph , 20 km/h
Temperature: 36°F , 2°C
Wind Chill: 27°F , -3°C
Dew Point: 18°F , -8°C
Humidity: 48%
Barometer: 29.90 inHg , 1012.5 hPa
Clouds: Clear
Visibility: 10 miles , 16 km
2019/02/15 18:55 KMWO 151855Z AUTO 30011KT 10SM CLR 02/M08 A2990 RMK AO2 T00171076
KCVG - Covington, Kentucky, USA
Distance from station: SW 22mi, 35km
Updated: 02/15/2019 1:52pm
Overcast
Overcast
 Wind from W
Wind: W 14 mph , 22 km/h
Temperature: 37°F , 3°C
Wind Chill: 28°F , -2°C
Dew Point: 19°F , -7°C
Humidity: 48%
Barometer: 29.88 inHg , 1011.9 hPa
Clouds: Overcast
Visibility: 10 miles , 16 km
Cloud details: Partly cloudy 14000 ft
Overcast 20000 ft
2019/02/15 18:52 KCVG 151852Z 28012KT 10SM SCT140 OVC200 03/M07 A2988 RMK AO2 SLP118 VIRGA S-SW T00281072
 
KILN - Wilmington, Ohio, USA
Distance from station: ENE 33mi, 54km
Updated: 02/15/2019 1:54pm
Clear
Clear
 Wind from WNW
Wind: WNW 20 mph , 31 km/h, Gust: 26 mph , 43 km/h
Temperature: 37°F , 3°C
Wind Chill: 27°F , -3°C
Dew Point: 19°F , -7°C
Humidity: 48%
Barometer: 29.84 inHg , 1010.5 hPa
Clouds: Clear
Visibility: 10 miles , 16 km
2019/02/15 18:54 KILN 151854Z AUTO 30017G23KT 10SM CLR 03/M07 A2984 RMK AO2 SLP119 T00331072
KDAY - Dayton, Ohio, USA
Distance from station: NNE 43mi, 70km
Updated: 02/15/2019 1:56pm
Mostly cloudy
Mostly cloudy
 Wind from WNW
Wind: WNW 22 mph , 35 km/h, Gust: 26 mph , 43 km/h
Temperature: 34°F , 1°C
Wind Chill: 22°F , -6°C
Dew Point: 21°F , -6°C
Humidity: 60%
Barometer: 29.87 inHg , 1011.5 hPa
Clouds: Mostly cloudy
Visibility: 10 miles , 16 km
Cloud details: Few Clouds 2200 ft
Few Clouds 2900 ft
Mostly cloudy 19000 ft
Mostly cloudy 25000 ft
2019/02/15 18:56 KDAY 151856Z 29019G23KT 10SM FEW022 FEW029 BKN190 BKN250 01/M06 A2987 RMK AO2 SLP119 T00061061
KTZR - Columbus/Bolton, Ohio, USA
Distance from station: ENE 80mi, 128km
Updated: 02/15/2019 1:50pm
Clear
Clear
 Wind from W
Wind: W 13 mph , 20 km/h, Gust: 17 mph , 28 km/h
Temperature: 37°F , 3°C
Wind Chill: 29°F , -2°C
Dew Point: 25°F , -4°C
Humidity: 60%
Barometer: 29.83 inHg , 1010.2 hPa
Clouds: Clear
Visibility: 10 miles , 16 km
2019/02/15 18:50 KTZR 151850Z 27011G15KT 10SM SKC 03/M04 A2983
 
KMGN - Harbor Springs, Michigan, USA
Distance from station: N 417mi, 672km
Updated: 02/15/2019 1:56pm
Light snow, Overcast
Light snow, Overcast
 Wind from W
Wind: W 10 mph , 17 km/h, Gust: 24 mph , 39 km/h
Temperature: 27°F , -3°C
Wind Chill: 18°F , -8°C
Dew Point: 21°F , -6°C
Humidity: 80%
Barometer: 29.58 inHg , 1001.7 hPa
Summary: Light Snow
Clouds: Overcast
Visibility: 1 1/2 miles , 2.4 km
Cloud details: Overcast 1900 ft
2019/02/15 18:56 KMGN 151856Z AUTO 28009G21KT 1 1/2SM -SN OVC019 M03/M06 A2958 RMK AO2 T10401065
KIND - Indianapolis, Indiana, USA
Distance from station: WNW 99mi, 160km
Updated: 02/15/2019 1:54pm
Mostly cloudy
Mostly cloudy
 Wind from W
Wind: W 18 mph , 30 km/h
Temperature: 28°F , -2°C
Wind Chill: 15°F , -9°C
Dew Point: 16°F , -9°C
Humidity: 59%
Barometer: 29.94 inHg , 1013.9 hPa
Clouds: Mostly cloudy
Visibility: 10 miles , 16 km
Cloud details: Few Clouds 2600 ft
Mostly cloudy 19000 ft
Mostly cloudy 23000 ft
2019/02/15 18:54 KIND 151854Z 28016KT 10SM FEW026 BKN190 BKN230 M02/M09 A2994 RMK AO2 SLP144 T10221089
KLEX - Lexington, Kentucky, USA
Distance from station: S 87mi, 141km
Updated: 02/15/2019 1:54pm
Overcast
Overcast
 Wind from NW
Wind: NW 14 mph , 22 km/h
Temperature: 43°F , 6°C
Wind Chill: 36°F , 2°C
Dew Point: 28°F , -2°C
Humidity: 57%
Barometer: 29.89 inHg , 1012.2 hPa
Clouds: Overcast
Visibility: 10 miles , 16 km
Cloud details: Overcast 10000 ft
2019/02/15 18:54 KLEX 151854Z 31012KT 10SM OVC100 06/M02 A2989 RMK AO2 SLP121 T00611022
 
KSDF - Louisville, Kentucky, USA
Distance from station: SW 104mi, 167km
Updated: 02/15/2019 1:56pm
Overcast
Overcast
 Wind from NW
Wind: NW 9 mph , 15 km/h
Temperature: 41°F , 5°C
Wind Chill: 35°F , 2°C
Dew Point: 21°F , -6°C
Humidity: 45%
Barometer: 29.93 inHg , 1013.5 hPa
Clouds: Overcast
Visibility: 10 miles , 16 km
Cloud details: Mostly cloudy 6000 ft
Overcast 9000 ft
2019/02/15 18:56 KSDF 151856Z 31008KT 10SM BKN060 OVC090 05/M06 A2993 RMK AO2 SLP135 T00501061